createdAt,value
2022-10-02T19:18:17.475Z,8.27
2022-10-02T19:21:19.232Z,8.57
2022-10-02T19:24:15.265Z,8.83
2022-10-02T19:26:52.357Z,9.04
2022-10-02T19:29:56.026Z,9.16
2022-10-02T19:32:43.071Z,9.42
2022-10-02T19:35:18.611Z,9.47
2022-10-02T19:37:50.337Z,9.57
2022-10-02T19:40:22.048Z,9.67
2022-10-02T19:43:02.574Z,9.77
2022-10-02T19:45:34.040Z,9.83
2022-10-02T19:48:06.392Z,9.83
2022-10-02T19:50:52.802Z,9.92
2022-10-02T19:54:11.296Z,9.76
2022-10-02T19:56:47.834Z,9.85
2022-10-02T19:59:28.880Z,9.86
2022-10-02T20:02:01.030Z,9.89
2022-10-02T20:04:31.127Z,9.97
2022-10-02T20:07:00.665Z,9.98
2022-10-02T20:09:43.616Z,9.93
2022-10-02T20:12:21.949Z,10.00
2022-10-02T20:15:13.015Z,10.13
2022-10-02T20:17:40.691Z,9.94
2022-10-02T20:20:16.770Z,9.91
2022-10-02T20:22:58.888Z,9.99
2022-10-02T20:25:50.282Z,9.99
2022-10-02T20:28:20.101Z,10.03
2022-10-02T20:30:58.525Z,10.02
2022-10-02T20:33:40.085Z,10.01
2022-10-02T20:36:20.433Z,10.07
2022-10-02T20:39:13.757Z,10.07
2022-10-02T20:42:03.081Z,9.99
2022-10-02T20:44:33.869Z,10.08
2022-10-02T20:50:40.615Z,10.09
2022-10-02T20:53:59.590Z,10.03
2022-10-02T20:56:42.071Z,9.95
2022-10-02T20:59:19.060Z,9.98
2022-10-02T21:02:19.178Z,10.04
2022-10-02T21:05:37.629Z,10.02
2022-10-02T21:08:47.942Z,10.05
2022-10-02T21:11:56.720Z,9.95
2022-10-02T21:14:32.637Z,9.94
2022-10-02T21:17:25.922Z,10.03
2022-10-02T21:20:39.331Z,10.00
2022-10-02T21:23:59.154Z,9.84
2022-10-02T21:26:41.126Z,9.86
2022-10-02T21:29:40.428Z,9.81
2022-10-02T21:33:04.136Z,9.79
2022-10-02T21:35:46.352Z,9.86
2022-10-02T21:39:17.635Z,9.74
2022-10-02T21:42:19.713Z,9.72
2022-10-02T21:45:24.113Z,9.77
2022-10-02T21:48:29.030Z,9.78
2022-10-02T21:51:32.651Z,9.86
2022-10-02T21:54:36.515Z,9.72
2022-10-02T21:57:49.679Z,9.81
2022-10-02T22:00:40.020Z,9.86
2022-10-02T22:03:10.534Z,9.83
2022-10-02T22:05:58.981Z,9.77
2022-10-02T22:08:51.739Z,9.88
2022-10-02T22:11:51.249Z,9.86
2022-10-02T22:14:45.555Z,9.83
2022-10-02T22:17:51.170Z,9.80
2022-10-02T22:20:50.613Z,9.94
2022-10-02T22:23:38.862Z,9.94
2022-10-02T22:26:31.218Z,9.79
2022-10-02T22:29:10.639Z,9.82
2022-10-02T22:32:25.538Z,9.78
2022-10-02T22:35:26.111Z,9.88
2022-10-02T22:38:22.789Z,9.80
2022-10-02T22:41:16.617Z,9.86
2022-10-02T22:44:00.810Z,9.91
2022-10-02T22:46:53.072Z,9.82
2022-10-02T22:50:08.898Z,10.03
2022-10-02T22:52:57.438Z,10.12
2022-10-02T22:55:29.897Z,10.02
2022-10-02T22:58:18.298Z,10.11
2022-10-02T23:01:22.791Z,10.13
2022-10-02T23:04:10.592Z,10.01
2022-10-02T23:06:48.649Z,10.31
2022-10-02T23:09:48.635Z,10.37
2022-10-02T23:12:38.102Z,10.27
2022-10-02T23:15:45.587Z,10.21
2022-10-02T23:18:48.235Z,10.36
2022-10-02T23:21:43.237Z,10.33
2022-10-02T23:24:12.320Z,10.39
2022-10-02T23:26:56.908Z,10.38
2022-10-02T23:29:53.485Z,10.43
2022-10-02T23:32:42.695Z,10.44
2022-10-02T23:35:37.175Z,10.48
2022-10-02T23:38:24.612Z,10.41
2022-10-02T23:41:22.208Z,10.51
2022-10-02T23:44:33.921Z,10.51
2022-10-02T23:47:29.505Z,10.26
2022-10-02T23:49:58.947Z,10.42
2022-10-02T23:52:49.966Z,10.24
2022-10-02T23:55:57.093Z,10.32
2022-10-02T23:59:04.686Z,10.35
